臺北終端管制區 - 松西席

METAR RCSS 051030Z 10006KT 070V130 9999 FEW030 SCT220 32/27 Q1005 NOSIG RMK A2969=

站台狀態:Offline
最後更新:2020-07-05 18:30:02